sensor_id;sensor_type;location;lat;lon;timestamp;temperature;humidity
48589;DHT22;34369;51.174;6.738;2023-04-03T00:02:28;1.20;62.50
48589;DHT22;34369;51.174;6.738;2023-04-03T00:05:00;1.20;62.70
48589;DHT22;34369;51.174;6.738;2023-04-03T00:07:33;1.10;62.60
48589;DHT22;34369;51.174;6.738;2023-04-03T00:10:06;1.10;62.70
48589;DHT22;34369;51.174;6.738;2023-04-03T00:12:39;1.10;62.60
48589;DHT22;34369;51.174;6.738;2023-04-03T00:15:13;1.00;62.50
48589;DHT22;34369;51.174;6.738;2023-04-03T00:17:45;1.10;62.80
48589;DHT22;34369;51.174;6.738;2023-04-03T00:20:17;1.00;62.70
48589;DHT22;34369;51.174;6.738;2023-04-03T00:22:50;1.10;62.70
48589;DHT22;34369;51.174;6.738;2023-04-03T00:25:22;1.10;63.20
48589;DHT22;34369;51.174;6.738;2023-04-03T00:27:54;1.10;63.00
48589;DHT22;34369;51.174;6.738;2023-04-03T00:30:27;1.10;63.00
48589;DHT22;34369;51.174;6.738;2023-04-03T00:32:59;1.00;63.00
48589;DHT22;34369;51.174;6.738;2023-04-03T00:35:31;1.00;62.80
48589;DHT22;34369;51.174;6.738;2023-04-03T00:38:05;1.00;62.70
48589;DHT22;34369;51.174;6.738;2023-04-03T00:40:38;1.00;62.90
48589;DHT22;34369;51.174;6.738;2023-04-03T00:43:14;1.00;63.20
48589;DHT22;34369;51.174;6.738;2023-04-03T00:45:50;1.00;63.00
48589;DHT22;34369;51.174;6.738;2023-04-03T00:48:25;1.00;62.90
48589;DHT22;34369;51.174;6.738;2023-04-03T00:50:59;0.90;63.20
48589;DHT22;34369;51.174;6.738;2023-04-03T00:53:37;0.90;63.10
48589;DHT22;34369;51.174;6.738;2023-04-03T00:56:13;0.90;63.20
48589;DHT22;34369;51.174;6.738;2023-04-03T00:58:51;0.80;63.30
48589;DHT22;34369;51.174;6.738;2023-04-03T01:01:27;0.80;63.30
48589;DHT22;34369;51.174;6.738;2023-04-03T01:04:01;0.80;63.10
48589;DHT22;34369;51.174;6.738;2023-04-03T01:06:36;0.80;63.00
48589;DHT22;34369;51.174;6.738;2023-04-03T01:09:10;0.80;62.90
48589;DHT22;34369;51.174;6.738;2023-04-03T01:11:42;0.80;63.20
48589;DHT22;34369;51.174;6.738;2023-04-03T01:14:14;0.80;63.20
48589;DHT22;34369;51.174;6.738;2023-04-03T01:16:52;0.70;63.30
48589;DHT22;34369;51.174;6.738;2023-04-03T01:19:25;0.60;63.50
48589;DHT22;34369;51.174;6.738;2023-04-03T01:22:08;0.60;63.20
48589;DHT22;34369;51.174;6.738;2023-04-03T01:24:50;0.60;63.50
48589;DHT22;34369;51.174;6.738;2023-04-03T01:27:23;0.60;63.20
48589;DHT22;34369;51.174;6.738;2023-04-03T01:29:56;0.60;63.20
48589;DHT22;34369;51.174;6.738;2023-04-03T01:32:30;0.60;63.30
48589;DHT22;34369;51.174;6.738;2023-04-03T01:35:02;0.60;63.40
48589;DHT22;34369;51.174;6.738;2023-04-03T01:37:34;0.60;63.90
48589;DHT22;34369;51.174;6.738;2023-04-03T01:40:07;0.60;63.90
48589;DHT22;34369;51.174;6.738;2023-04-03T01:42:39;0.60;64.10
48589;DHT22;34369;51.174;6.738;2023-04-03T01:45:12;0.70;64.00
48589;DHT22;34369;51.174;6.738;2023-04-03T01:47:45;0.70;63.90
48589;DHT22;34369;51.174;6.738;2023-04-03T01:50:17;0.80;63.90
48589;DHT22;34369;51.174;6.738;2023-04-03T01:52:49;0.80;64.20
48589;DHT22;34369;51.174;6.738;2023-04-03T01:55:21;0.80;64.20
48589;DHT22;34369;51.174;6.738;2023-04-03T01:57:52;0.80;64.10
48589;DHT22;34369;51.174;6.738;2023-04-03T02:00:25;0.90;64.00
48589;DHT22;34369;51.174;6.738;2023-04-03T02:02:59;1.00;64.10
48589;DHT22;34369;51.174;6.738;2023-04-03T02:05:31;1.00;64.00
48589;DHT22;34369;51.174;6.738;2023-04-03T02:08:03;1.00;63.80
48589;DHT22;34369;51.174;6.738;2023-04-03T02:10:35;1.00;64.00
48589;DHT22;34369;51.174;6.738;2023-04-03T02:13:07;1.00;63.90
48589;DHT22;34369;51.174;6.738;2023-04-03T02:15:40;1.10;63.90
48589;DHT22;34369;51.174;6.738;2023-04-03T02:18:14;1.10;63.80
48589;DHT22;34369;51.174;6.738;2023-04-03T02:20:46;1.10;63.80
48589;DHT22;34369;51.174;6.738;2023-04-03T02:23:18;1.20;63.70
48589;DHT22;34369;51.174;6.738;2023-04-03T02:25:50;1.20;63.60
48589;DHT22;34369;51.174;6.738;2023-04-03T02:28:22;1.20;63.60
48589;DHT22;34369;51.174;6.738;2023-04-03T02:30:54;1.30;63.50
48589;DHT22;34369;51.174;6.738;2023-04-03T02:33:27;1.30;63.40
48589;DHT22;34369;51.174;6.738;2023-04-03T02:35:59;1.40;63.40
48589;DHT22;34369;51.174;6.738;2023-04-03T02:38:32;1.40;63.20
48589;DHT22;34369;51.174;6.738;2023-04-03T02:41:06;1.40;63.20
48589;DHT22;34369;51.174;6.738;2023-04-03T02:43:39;1.40;63.20
48589;DHT22;34369;51.174;6.738;2023-04-03T02:46:11;1.40;63.10
48589;DHT22;34369;51.174;6.738;2023-04-03T02:48:46;1.40;63.10
48589;DHT22;34369;51.174;6.738;2023-04-03T02:51:18;1.40;63.10
48589;DHT22;34369;51.174;6.738;2023-04-03T02:53:50;1.40;63.00
48589;DHT22;34369;51.174;6.738;2023-04-03T02:56:22;1.50;63.10
48589;DHT22;34369;51.174;6.738;2023-04-03T02:58:54;1.50;63.00
48589;DHT22;34369;51.174;6.738;2023-04-03T03:01:26;1.50;63.00
48589;DHT22;34369;51.174;6.738;2023-04-03T03:04:03;1.50;63.00
48589;DHT22;34369;51.174;6.738;2023-04-03T03:06:35;1.50;63.00
48589;DHT22;34369;51.174;6.738;2023-04-03T03:09:07;1.60;62.90
48589;DHT22;34369;51.174;6.738;2023-04-03T03:11:38;1.60;62.90
48589;DHT22;34369;51.174;6.738;2023-04-03T03:14:10;1.60;62.90
48589;DHT22;34369;51.174;6.738;2023-04-03T03:16:42;1.60;62.80
48589;DHT22;34369;51.174;6.738;2023-04-03T03:19:16;1.60;62.80
48589;DHT22;34369;51.174;6.738;2023-04-03T03:21:48;1.60;62.70
48589;DHT22;34369;51.174;6.738;2023-04-03T03:24:20;1.60;62.60
48589;DHT22;34369;51.174;6.738;2023-04-03T03:26:52;1.70;62.60
48589;DHT22;34369;51.174;6.738;2023-04-03T03:29:24;1.70;62.50
48589;DHT22;34369;51.174;6.738;2023-04-03T03:31:56;1.70;62.50
48589;DHT22;34369;51.174;6.738;2023-04-03T03:34:29;1.70;62.40
48589;DHT22;34369;51.174;6.738;2023-04-03T03:37:01;1.70;62.30
48589;DHT22;34369;51.174;6.738;2023-04-03T03:39:33;1.70;62.30
48589;DHT22;34369;51.174;6.738;2023-04-03T03:42:05;1.70;62.30
48589;DHT22;34369;51.174;6.738;2023-04-03T03:44:37;1.70;62.20
48589;DHT22;34369;51.174;6.738;2023-04-03T03:47:09;1.70;62.20
48589;DHT22;34369;51.174;6.738;2023-04-03T03:49:42;1.70;62.10
48589;DHT22;34369;51.174;6.738;2023-04-03T03:52:14;1.70;62.10
48589;DHT22;34369;51.174;6.738;2023-04-03T03:54:46;1.70;62.10
48589;DHT22;34369;51.174;6.738;2023-04-03T03:57:18;1.70;62.10
48589;DHT22;34369;51.174;6.738;2023-04-03T03:59:51;1.60;62.00
48589;DHT22;34369;51.174;6.738;2023-04-03T04:02:23;1.60;62.00
48589;DHT22;34369;51.174;6.738;2023-04-03T04:04:56;1.60;62.00
48589;DHT22;34369;51.174;6.738;2023-04-03T04:07:28;1.60;61.90
48589;DHT22;34369;51.174;6.738;2023-04-03T04:10:00;1.60;61.90
48589;DHT22;34369;51.174;6.738;2023-04-03T04:12:32;1.60;61.80
48589;DHT22;34369;51.174;6.738;2023-04-03T04:15:06;1.60;61.70
48589;DHT22;34369;51.174;6.738;2023-04-03T04:17:39;1.60;61.80
48589;DHT22;34369;51.174;6.738;2023-04-03T04:20:12;1.60;61.70
48589;DHT22;34369;51.174;6.738;2023-04-03T04:22:44;1.60;61.70
48589;DHT22;34369;51.174;6.738;2023-04-03T04:25:16;1.60;61.70
48589;DHT22;34369;51.174;6.738;2023-04-03T04:27:48;1.60;61.70
48589;DHT22;34369;51.174;6.738;2023-04-03T04:30:20;1.60;61.70
48589;DHT22;34369;51.174;6.738;2023-04-03T04:32:52;1.50;61.60
48589;DHT22;34369;51.174;6.738;2023-04-03T04:35:25;1.50;61.70
48589;DHT22;34369;51.174;6.738;2023-04-03T04:37:57;1.50;61.70
48589;DHT22;34369;51.174;6.738;2023-04-03T04:40:29;1.50;61.60
48589;DHT22;34369;51.174;6.738;2023-04-03T04:43:01;1.50;61.60
48589;DHT22;34369;51.174;6.738;2023-04-03T04:45:33;1.40;61.60
48589;DHT22;34369;51.174;6.738;2023-04-03T04:48:05;1.40;61.60
48589;DHT22;34369;51.174;6.738;2023-04-03T04:50:38;1.40;61.60
48589;DHT22;34369;51.174;6.738;2023-04-03T04:53:10;1.40;61.60
48589;DHT22;34369;51.174;6.738;2023-04-03T04:55:42;1.40;61.60
48589;DHT22;34369;51.174;6.738;2023-04-03T04:58:14;1.40;61.60
48589;DHT22;34369;51.174;6.738;2023-04-03T05:00:46;1.40;61.60
48589;DHT22;34369;51.174;6.738;2023-04-03T05:03:18;1.40;61.70
48589;DHT22;34369;51.174;6.738;2023-04-03T05:05:52;1.40;61.60
48589;DHT22;34369;51.174;6.738;2023-04-03T05:08:24;1.30;61.60
48589;DHT22;34369;51.174;6.738;2023-04-03T05:10:57;1.30;61.80
48589;DHT22;34369;51.174;6.738;2023-04-03T05:13:29;1.30;61.70
48589;DHT22;34369;51.174;6.738;2023-04-03T05:16:01;1.20;61.80
48589;DHT22;34369;51.174;6.738;2023-04-03T05:18:33;1.20;61.80
48589;DHT22;34369;51.174;6.738;2023-04-03T05:21:07;1.20;61.80
48589;DHT22;34369;51.174;6.738;2023-04-03T05:23:39;1.20;61.80
48589;DHT22;34369;51.174;6.738;2023-04-03T05:26:11;1.20;61.80
48589;DHT22;34369;51.174;6.738;2023-04-03T05:28:43;1.20;61.80
48589;DHT22;34369;51.174;6.738;2023-04-03T05:31:15;1.20;61.90
48589;DHT22;34369;51.174;6.738;2023-04-03T05:33:47;1.20;61.80
48589;DHT22;34369;51.174;6.738;2023-04-03T05:36:21;1.20;62.00
48589;DHT22;34369;51.174;6.738;2023-04-03T05:38:53;1.20;61.90
48589;DHT22;34369;51.174;6.738;2023-04-03T05:41:26;1.20;62.00
48589;DHT22;34369;51.174;6.738;2023-04-03T05:43:58;1.20;61.90
48589;DHT22;34369;51.174;6.738;2023-04-03T05:46:30;1.20;62.00
48589;DHT22;34369;51.174;6.738;2023-04-03T05:49:03;1.20;62.10
48589;DHT22;34369;51.174;6.738;2023-04-03T05:51:38;1.20;62.00
48589;DHT22;34369;51.174;6.738;2023-04-03T05:54:13;1.20;62.10
48589;DHT22;34369;51.174;6.738;2023-04-03T05:56:48;1.20;62.10
48589;DHT22;34369;51.174;6.738;2023-04-03T05:59:20;1.30;62.10
48589;DHT22;34369;51.174;6.738;2023-04-03T06:01:52;1.40;62.10
48589;DHT22;34369;51.174;6.738;2023-04-03T06:04:25;1.30;62.10
48589;DHT22;34369;51.174;6.738;2023-04-03T06:06:58;1.40;62.10
48589;DHT22;34369;51.174;6.738;2023-04-03T06:09:31;1.40;62.10
48589;DHT22;34369;51.174;6.738;2023-04-03T06:12:03;1.40;62.10
48589;DHT22;34369;51.174;6.738;2023-04-03T06:14:35;1.40;62.20
48589;DHT22;34369;51.174;6.738;2023-04-03T06:17:07;1.40;62.20
48589;DHT22;34369;51.174;6.738;2023-04-03T06:19:40;1.50;62.20
48589;DHT22;34369;51.174;6.738;2023-04-03T06:22:14;1.50;62.20
48589;DHT22;34369;51.174;6.738;2023-04-03T06:24:46;1.60;62.20
48589;DHT22;34369;51.174;6.738;2023-04-03T06:27:17;1.60;62.20
48589;DHT22;34369;51.174;6.738;2023-04-03T06:29:49;1.70;62.20
48589;DHT22;34369;51.174;6.738;2023-04-03T06:32:22;1.70;62.10
48589;DHT22;34369;51.174;6.738;2023-04-03T06:34:54;1.80;61.90
48589;DHT22;34369;51.174;6.738;2023-04-03T06:37:29;1.80;61.80
48589;DHT22;34369;51.174;6.738;2023-04-03T06:40:01;1.90;61.80
48589;DHT22;34369;51.174;6.738;2023-04-03T06:42:34;1.90;61.80
48589;DHT22;34369;51.174;6.738;2023-04-03T06:45:07;2.00;61.60
48589;DHT22;34369;51.174;6.738;2023-04-03T06:47:41;2.00;61.60
48589;DHT22;34369;51.174;6.738;2023-04-03T06:50:13;2.00;61.60
48589;DHT22;34369;51.174;6.738;2023-04-03T06:52:47;2.10;61.40
48589;DHT22;34369;51.174;6.738;2023-04-03T06:55:19;2.20;61.30
48589;DHT22;34369;51.174;6.738;2023-04-03T06:57:54;2.20;61.50
48589;DHT22;34369;51.174;6.738;2023-04-03T07:00:26;2.30;61.70
48589;DHT22;34369;51.174;6.738;2023-04-03T07:02:58;2.40;62.00
48589;DHT22;34369;51.174;6.738;2023-04-03T07:05:31;2.50;62.00
48589;DHT22;34369;51.174;6.738;2023-04-03T07:08:04;2.80;61.80
48589;DHT22;34369;51.174;6.738;2023-04-03T07:10:38;2.90;61.60
48589;DHT22;34369;51.174;6.738;2023-04-03T07:13:10;3.10;61.80
48589;DHT22;34369;51.174;6.738;2023-04-03T07:15:42;3.40;62.30
48589;DHT22;34369;51.174;6.738;2023-04-03T07:18:14;3.60;62.50
48589;DHT22;34369;51.174;6.738;2023-04-03T07:20:47;4.00;62.30
48589;DHT22;34369;51.174;6.738;2023-04-03T07:23:21;4.40;61.70
48589;DHT22;34369;51.174;6.738;2023-04-03T07:25:54;4.80;61.20
48589;DHT22;34369;51.174;6.738;2023-04-03T07:28:27;5.20;60.20
48589;DHT22;34369;51.174;6.738;2023-04-03T07:31:01;5.50;59.20
48589;DHT22;34369;51.174;6.738;2023-04-03T07:33:36;5.90;58.70
48589;DHT22;34369;51.174;6.738;2023-04-03T07:36:10;6.10;58.50
48589;DHT22;34369;51.174;6.738;2023-04-03T07:38:48;6.50;58.30
48589;DHT22;34369;51.174;6.738;2023-04-03T07:41:20;6.90;57.10
48589;DHT22;34369;51.174;6.738;2023-04-03T07:43:53;7.20;56.00
48589;DHT22;34369;51.174;6.738;2023-04-03T07:46:26;7.50;54.70
48589;DHT22;34369;51.174;6.738;2023-04-03T07:48:59;7.60;53.50
48589;DHT22;34369;51.174;6.738;2023-04-03T07:51:31;7.70;52.60
48589;DHT22;34369;51.174;6.738;2023-04-03T07:54:04;7.80;52.70
48589;DHT22;34369;51.174;6.738;2023-04-03T07:56:36;7.80;52.30
48589;DHT22;34369;51.174;6.738;2023-04-03T07:59:09;7.90;52.70
48589;DHT22;34369;51.174;6.738;2023-04-03T08:01:42;8.10;52.50
48589;DHT22;34369;51.174;6.738;2023-04-03T08:04:14;8.30;52.00
48589;DHT22;34369;51.174;6.738;2023-04-03T08:06:47;8.60;51.50
48589;DHT22;34369;51.174;6.738;2023-04-03T08:09:20;8.70;51.20
48589;DHT22;34369;51.174;6.738;2023-04-03T08:11:52;8.90;50.80
48589;DHT22;34369;51.174;6.738;2023-04-03T08:14:24;9.00;51.70
48589;DHT22;34369;51.174;6.738;2023-04-03T08:16:57;9.40;52.00
48589;DHT22;34369;51.174;6.738;2023-04-03T08:19:28;9.70;52.20
48589;DHT22;34369;51.174;6.738;2023-04-03T08:22:01;10.20;51.20
48589;DHT22;34369;51.174;6.738;2023-04-03T08:24:35;10.60;50.70
48589;DHT22;34369;51.174;6.738;2023-04-03T08:27:07;11.10;49.50
48589;DHT22;34369;51.174;6.738;2023-04-03T08:29:40;11.50;48.20
48589;DHT22;34369;51.174;6.738;2023-04-03T08:32:12;11.80;46.80
48589;DHT22;34369;51.174;6.738;2023-04-03T08:34:44;11.80;45.90
48589;DHT22;34369;51.174;6.738;2023-04-03T08:37:17;11.90;45.30
48589;DHT22;34369;51.174;6.738;2023-04-03T08:39:51;11.80;44.20
48589;DHT22;34369;51.174;6.738;2023-04-03T08:42:36;11.80;44.60
48589;DHT22;34369;51.174;6.738;2023-04-03T08:45:18;11.80;43.40
48589;DHT22;34369;51.174;6.738;2023-04-03T08:47:55;11.80;44.50
48589;DHT22;34369;51.174;6.738;2023-04-03T08:50:36;12.00;44.00
48589;DHT22;34369;51.174;6.738;2023-04-03T08:53:14;12.10;43.50
48589;DHT22;34369;51.174;6.738;2023-04-03T08:55:49;12.30;42.80
48589;DHT22;34369;51.174;6.738;2023-04-03T08:58:23;12.50;43.40
48589;DHT22;34369;51.174;6.738;2023-04-03T09:00:59;12.80;43.40
48589;DHT22;34369;51.174;6.738;2023-04-03T09:03:36;13.00;42.80
48589;DHT22;34369;51.174;6.738;2023-04-03T09:06:12;13.30;42.80
48589;DHT22;34369;51.174;6.738;2023-04-03T09:08:51;13.50;42.10
48589;DHT22;34369;51.174;6.738;2023-04-03T09:11:39;13.70;41.00
48589;DHT22;34369;51.174;6.738;2023-04-03T09:14:23;14.00;39.60
48589;DHT22;34369;51.174;6.738;2023-04-03T09:16:59;14.30;40.40
48589;DHT22;34369;51.174;6.738;2023-04-03T09:19:38;14.60;40.20
48589;DHT22;34369;51.174;6.738;2023-04-03T09:22:17;14.70;38.40
48589;DHT22;34369;51.174;6.738;2023-04-03T09:24:55;14.90;37.70
48589;DHT22;34369;51.174;6.738;2023-04-03T09:27:30;14.90;37.60
48589;DHT22;34369;51.174;6.738;2023-04-03T09:30:03;14.90;38.10
48589;DHT22;34369;51.174;6.738;2023-04-03T09:32:37;14.70;37.60
48589;DHT22;34369;51.174;6.738;2023-04-03T09:35:19;14.60;37.60
48589;DHT22;34369;51.174;6.738;2023-04-03T09:37:55;14.40;36.70
48589;DHT22;34369;51.174;6.738;2023-04-03T09:40:33;14.20;37.00
48589;DHT22;34369;51.174;6.738;2023-04-03T09:43:25;13.90;36.30
48589;DHT22;34369;51.174;6.738;2023-04-03T09:46:18;13.60;35.50
48589;DHT22;34369;51.174;6.738;2023-04-03T09:48:58;13.20;35.00
48589;DHT22;34369;51.174;6.738;2023-04-03T09:51:31;12.80;36.10
48589;DHT22;34369;51.174;6.738;2023-04-03T09:54:31;12.40;36.60
48589;DHT22;34369;51.174;6.738;2023-04-03T09:57:09;11.90;36.50
48589;DHT22;34369;51.174;6.738;2023-04-03T09:59:47;11.60;37.00
48589;DHT22;34369;51.174;6.738;2023-04-03T10:02:35;11.40;36.50
48589;DHT22;34369;51.174;6.738;2023-04-03T10:05:28;11.00;36.70
48589;DHT22;34369;51.174;6.738;2023-04-03T10:08:10;10.80;36.80
48589;DHT22;34369;51.174;6.738;2023-04-03T10:11:14;10.50;37.00
48589;DHT22;34369;51.174;6.738;2023-04-03T10:13:55;10.20;37.20
48589;DHT22;34369;51.174;6.738;2023-04-03T10:16:36;10.00;38.00
48589;DHT22;34369;51.174;6.738;2023-04-03T10:19:22;9.80;37.70
48589;DHT22;34369;51.174;6.738;2023-04-03T10:22:10;9.70;37.80
48589;DHT22;34369;51.174;6.738;2023-04-03T10:25:01;9.50;38.00
48589;DHT22;34369;51.174;6.738;2023-04-03T10:27:44;9.40;38.20
48589;DHT22;34369;51.174;6.738;2023-04-03T10:30:31;9.40;38.10
48589;DHT22;34369;51.174;6.738;2023-04-03T10:33:22;9.20;38.40
48589;DHT22;34369;51.174;6.738;2023-04-03T10:36:09;9.20;38.60
48589;DHT22;34369;51.174;6.738;2023-04-03T10:38:54;9.20;37.80
48589;DHT22;34369;51.174;6.738;2023-04-03T10:41:38;9.20;39.20
48589;DHT22;34369;51.174;6.738;2023-04-03T10:44:28;9.00;39.00
48589;DHT22;34369;51.174;6.738;2023-04-03T10:47:11;9.00;38.10
48589;DHT22;34369;51.174;6.738;2023-04-03T10:49:53;9.00;38.20
48589;DHT22;34369;51.174;6.738;2023-04-03T10:52:34;9.00;37.70
48589;DHT22;34369;51.174;6.738;2023-04-03T10:55:21;9.00;37.50
48589;DHT22;34369;51.174;6.738;2023-04-03T10:57:59;9.00;37.60
48589;DHT22;34369;51.174;6.738;2023-04-03T11:00:40;9.00;37.90
48589;DHT22;34369;51.174;6.738;2023-04-03T11:03:17;9.00;37.90
48589;DHT22;34369;51.174;6.738;2023-04-03T11:06:02;9.00;38.10
48589;DHT22;34369;51.174;6.738;2023-04-03T11:08:42;9.00;37.20
48589;DHT22;34369;51.174;6.738;2023-04-03T11:11:17;9.10;37.10
48589;DHT22;34369;51.174;6.738;2023-04-03T11:13:55;9.20;37.60
48589;DHT22;34369;51.174;6.738;2023-04-03T11:16:33;9.20;37.40
48589;DHT22;34369;51.174;6.738;2023-04-03T11:19:16;9.30;37.20
48589;DHT22;34369;51.174;6.738;2023-04-03T11:21:56;9.40;37.90
48589;DHT22;34369;51.174;6.738;2023-04-03T11:24:32;9.40;37.00
48589;DHT22;34369;51.174;6.738;2023-04-03T11:27:05;9.40;37.50
48589;DHT22;34369;51.174;6.738;2023-04-03T11:29:39;9.50;37.70
48589;DHT22;34369;51.174;6.738;2023-04-03T11:32:28;9.60;37.90
48589;DHT22;34369;51.174;6.738;2023-04-03T11:35:09;9.80;37.00
48589;DHT22;34369;51.174;6.738;2023-04-03T11:37:46;10.00;37.80
48589;DHT22;34369;51.174;6.738;2023-04-03T11:40:23;10.00;37.70
48589;DHT22;34369;51.174;6.738;2023-04-03T11:43:05;10.30;37.50
48589;DHT22;34369;51.174;6.738;2023-04-03T11:45:50;10.60;36.60
48589;DHT22;34369;51.174;6.738;2023-04-03T11:48:50;10.80;37.40
48589;DHT22;34369;51.174;6.738;2023-04-03T11:51:50;11.20;37.00
48589;DHT22;34369;51.174;6.738;2023-04-03T11:54:47;11.50;36.70
48589;DHT22;34369;51.174;6.738;2023-04-03T12:00:48;12.20;38.00
48589;DHT22;34369;51.174;6.738;2023-04-03T12:04:08;12.70;36.20
48589;DHT22;34369;51.174;6.738;2023-04-03T12:10:12;13.30;34.60
48589;DHT22;34369;51.174;6.738;2023-04-03T12:12:57;13.40;34.10
48589;DHT22;34369;51.174;6.738;2023-04-03T12:15:49;13.40;33.40
48589;DHT22;34369;51.174;6.738;2023-04-03T12:18:41;13.30;32.90
48589;DHT22;34369;51.174;6.738;2023-04-03T12:21:16;13.30;33.20
48589;DHT22;34369;51.174;6.738;2023-04-03T12:24:02;13.10;33.50
48589;DHT22;34369;51.174;6.738;2023-04-03T12:26:38;12.90;31.80
48589;DHT22;34369;51.174;6.738;2023-04-03T12:29:17;12.80;33.90
48589;DHT22;34369;51.174;6.738;2023-04-03T12:32:06;12.70;34.70
48589;DHT22;34369;51.174;6.738;2023-04-03T12:35:01;12.50;33.70
48589;DHT22;34369;51.174;6.738;2023-04-03T12:41:18;12.40;32.50
48589;DHT22;34369;51.174;6.738;2023-04-03T12:44:04;12.30;33.60
48589;DHT22;34369;51.174;6.738;2023-04-03T12:46:50;12.40;34.00
48589;DHT22;34369;51.174;6.738;2023-04-03T12:49:26;12.40;34.50
48589;DHT22;34369;51.174;6.738;2023-04-03T12:52:15;12.40;34.90
48589;DHT22;34369;51.174;6.738;2023-04-03T12:54:50;12.30;34.70
48589;DHT22;34369;51.174;6.738;2023-04-03T12:57:26;12.30;34.30
48589;DHT22;34369;51.174;6.738;2023-04-03T13:00:00;12.20;34.50
48589;DHT22;34369;51.174;6.738;2023-04-03T13:02:50;12.10;34.30
48589;DHT22;34369;51.174;6.738;2023-04-03T13:05:23;12.10;35.20
48589;DHT22;34369;51.174;6.738;2023-04-03T13:07:59;12.20;35.30
48589;DHT22;34369;51.174;6.738;2023-04-03T13:10:45;12.30;34.90
48589;DHT22;34369;51.174;6.738;2023-04-03T13:13:22;12.40;35.20
48589;DHT22;34369;51.174;6.738;2023-04-03T13:15:56;12.50;35.10
48589;DHT22;34369;51.174;6.738;2023-04-03T13:18:30;12.70;34.90
48589;DHT22;34369;51.174;6.738;2023-04-03T13:21:06;12.90;35.30
48589;DHT22;34369;51.174;6.738;2023-04-03T13:23:44;13.10;35.00
48589;DHT22;34369;51.174;6.738;2023-04-03T13:26:20;13.40;34.70
48589;DHT22;34369;51.174;6.738;2023-04-03T13:28:55;13.60;34.90
48589;DHT22;34369;51.174;6.738;2023-04-03T13:31:36;13.90;34.70
48589;DHT22;34369;51.174;6.738;2023-04-03T13:34:12;14.10;33.60
48589;DHT22;34369;51.174;6.738;2023-04-03T13:36:50;14.30;33.90
48589;DHT22;34369;51.174;6.738;2023-04-03T13:39:29;14.50;33.90
48589;DHT22;34369;51.174;6.738;2023-04-03T13:42:15;14.60;33.30
48589;DHT22;34369;51.174;6.738;2023-04-03T13:44:49;14.70;32.40
48589;DHT22;34369;51.174;6.738;2023-04-03T13:47:23;14.80;33.70
48589;DHT22;34369;51.174;6.738;2023-04-03T13:50:00;14.90;33.30
48589;DHT22;34369;51.174;6.738;2023-04-03T13:52:40;14.90;32.50
48589;DHT22;34369;51.174;6.738;2023-04-03T13:55:20;15.00;32.70
48589;DHT22;34369;51.174;6.738;2023-04-03T13:57:57;15.00;32.80
48589;DHT22;34369;51.174;6.738;2023-04-03T14:00:35;15.00;33.00
48589;DHT22;34369;51.174;6.738;2023-04-03T14:03:16;14.90;33.10
48589;DHT22;34369;51.174;6.738;2023-04-03T14:05:50;14.80;32.70
48589;DHT22;34369;51.174;6.738;2023-04-03T14:08:23;14.70;33.30
48589;DHT22;34369;51.174;6.738;2023-04-03T14:10:55;14.70;32.90
48589;DHT22;34369;51.174;6.738;2023-04-03T14:13:30;14.60;32.90
48589;DHT22;34369;51.174;6.738;2023-04-03T14:16:03;14.50;32.80
48589;DHT22;34369;51.174;6.738;2023-04-03T14:18:38;14.40;33.00
48589;DHT22;34369;51.174;6.738;2023-04-03T14:21:12;14.30;32.80
48589;DHT22;34369;51.174;6.738;2023-04-03T14:23:46;14.20;33.00
48589;DHT22;34369;51.174;6.738;2023-04-03T14:26:19;14.10;33.30
48589;DHT22;34369;51.174;6.738;2023-04-03T14:28:54;13.90;33.40
48589;DHT22;34369;51.174;6.738;2023-04-03T14:31:27;13.90;33.20
48589;DHT22;34369;51.174;6.738;2023-04-03T14:34:00;13.70;33.60
48589;DHT22;34369;51.174;6.738;2023-04-03T14:36:33;13.60;34.20
48589;DHT22;34369;51.174;6.738;2023-04-03T14:39:06;13.50;33.70
48589;DHT22;34369;51.174;6.738;2023-04-03T14:41:39;13.30;33.80
48589;DHT22;34369;51.174;6.738;2023-04-03T14:44:11;13.30;33.70
48589;DHT22;34369;51.174;6.738;2023-04-03T14:46:44;13.20;34.00
48589;DHT22;34369;51.174;6.738;2023-04-03T14:49:21;13.10;34.00
48589;DHT22;34369;51.174;6.738;2023-04-03T14:51:56;13.10;34.80
48589;DHT22;34369;51.174;6.738;2023-04-03T14:54:28;13.10;34.80
48589;DHT22;34369;51.174;6.738;2023-04-03T14:57:01;13.10;34.60
48589;DHT22;34369;51.174;6.738;2023-04-03T14:59:33;13.00;34.40
48589;DHT22;34369;51.174;6.738;2023-04-03T15:02:24;13.00;34.40
48589;DHT22;34369;51.174;6.738;2023-04-03T15:05:01;13.00;34.10
48589;DHT22;34369;51.174;6.738;2023-04-03T15:07:38;13.00;34.50
48589;DHT22;34369;51.174;6.738;2023-04-03T15:10:18;13.00;34.30
48589;DHT22;34369;51.174;6.738;2023-04-03T15:12:51;12.90;34.80
48589;DHT22;34369;51.174;6.738;2023-04-03T15:15:24;12.90;34.90
48589;DHT22;34369;51.174;6.738;2023-04-03T15:18:00;12.90;34.50
48589;DHT22;34369;51.174;6.738;2023-04-03T15:20:34;12.80;34.80
48589;DHT22;34369;51.174;6.738;2023-04-03T15:23:06;12.80;34.90
48589;DHT22;34369;51.174;6.738;2023-04-03T15:25:39;12.70;34.60
48589;DHT22;34369;51.174;6.738;2023-04-03T15:28:18;12.70;35.00
48589;DHT22;34369;51.174;6.738;2023-04-03T15:30:51;12.60;35.30
48589;DHT22;34369;51.174;6.738;2023-04-03T15:33:24;12.60;35.10
48589;DHT22;34369;51.174;6.738;2023-04-03T15:35:58;12.50;34.80
48589;DHT22;34369;51.174;6.738;2023-04-03T15:38:33;12.50;35.00
48589;DHT22;34369;51.174;6.738;2023-04-03T15:41:05;12.50;35.00
48589;DHT22;34369;51.174;6.738;2023-04-03T15:43:37;12.40;35.20
48589;DHT22;34369;51.174;6.738;2023-04-03T15:46:09;12.40;34.90
48589;DHT22;34369;51.174;6.738;2023-04-03T15:48:42;12.30;34.90
48589;DHT22;34369;51.174;6.738;2023-04-03T15:51:16;12.30;34.70
48589;DHT22;34369;51.174;6.738;2023-04-03T15:53:48;12.30;34.70
48589;DHT22;34369;51.174;6.738;2023-04-03T15:56:20;12.20;34.50
48589;DHT22;34369;51.174;6.738;2023-04-03T15:58:53;12.20;34.40
48589;DHT22;34369;51.174;6.738;2023-04-03T16:01:25;12.10;34.70
48589;DHT22;34369;51.174;6.738;2023-04-03T16:03:57;12.00;34.70
48589;DHT22;34369;51.174;6.738;2023-04-03T16:06:30;12.00;34.70
48589;DHT22;34369;51.174;6.738;2023-04-03T16:09:04;11.90;35.10
48589;DHT22;34369;51.174;6.738;2023-04-03T16:11:38;11.90;35.20
48589;DHT22;34369;51.174;6.738;2023-04-03T16:14:10;11.80;35.20
48589;DHT22;34369;51.174;6.738;2023-04-03T16:16:43;11.80;35.00
48589;DHT22;34369;51.174;6.738;2023-04-03T16:19:15;11.70;35.40
48589;DHT22;34369;51.174;6.738;2023-04-03T16:21:49;11.70;35.50
48589;DHT22;34369;51.174;6.738;2023-04-03T16:24:21;11.70;35.60
48589;DHT22;34369;51.174;6.738;2023-04-03T16:26:54;11.70;35.10
48589;DHT22;34369;51.174;6.738;2023-04-03T16:29:26;11.70;35.20
48589;DHT22;34369;51.174;6.738;2023-04-03T16:31:58;11.60;35.50
48589;DHT22;34369;51.174;6.738;2023-04-03T16:34:34;11.60;35.20
48589;DHT22;34369;51.174;6.738;2023-04-03T16:37:08;11.50;35.30
48589;DHT22;34369;51.174;6.738;2023-04-03T16:39:40;11.40;35.10
48589;DHT22;34369;51.174;6.738;2023-04-03T16:42:12;11.40;35.00
48589;DHT22;34369;51.174;6.738;2023-04-03T16:44:45;11.30;34.90